Time;durP1;ratioP1;P1;durP2;ratioP2;P2;SDS_P1;SDS_P2;PMS_P1;PMS_P2;Temp;Humidity;BMP_temperature;BMP_pressure;BME280_temperature;BME280_humidity;BME280_pressure;Samples;Min_cycle;Max_cycle;Signal;HPM_P1;HPM_P2
2022/11/09 00:00:53;;;;;;;29.77;23.50;;;;;;;13.21;56.18;102444.64;1694287;83;21065;-51
2022/11/09 00:03:20;;;;;;;29.27;22.77;;;;;;;13.14;56.50;102439.00;1700344;83;21051;-50
2022/11/09 00:05:58;;;;;;;31.12;23.40;;;;;;;13.10;56.56;102449.05;1700145;83;21040;-52
2022/11/09 00:08:26;;;;;;;29.40;23.47;;;;;;;13.06;56.65;102443.81;1690349;83;21127;-52
2022/11/09 00:10:53;;;;;;;33.25;22.98;;;;;;;13.03;56.78;102441.20;1684066;83;21547;-51
2022/11/09 00:13:21;;;;;;;31.02;22.07;;;;;;;12.98;56.92;102448.18;1697670;83;21579;-50
2022/11/09 00:15:49;;;;;;;27.93;20.55;;;;;;;12.92;57.01;102445.60;1708547;83;21059;-51
2022/11/09 00:18:15;;;;;;;25.68;20.48;;;;;;;12.85;57.18;102451.75;1700350;83;21071;-51
2022/11/09 00:20:42;;;;;;;27.37;21.27;;;;;;;12.77;57.50;102449.60;1687996;83;21119;-50
2022/11/09 00:23:09;;;;;;;25.62;19.70;;;;;;;12.72;57.79;102451.78;1690725;84;21048;-51
2022/11/09 00:25:35;;;;;;;24.18;19.52;;;;;;;12.66;58.01;102453.11;1711037;83;21091;-50
2022/11/09 00:28:04;;;;;;;24.57;19.12;;;;;;;12.60;58.25;102454.02;1703170;83;21055;-51
2022/11/09 00:30:31;;;;;;;24.18;19.48;;;;;;;12.57;58.42;102457.92;1702782;83;21020;-51
2022/11/09 00:32:57;;;;;;;23.15;19.02;;;;;;;12.54;58.54;102460.56;1699140;83;21055;-50
2022/11/09 00:35:25;;;;;;;28.30;21.05;;;;;;;12.53;58.53;102455.34;1695675;83;21134;-50
2022/11/09 00:37:52;;;;;;;22.32;18.87;;;;;;;12.51;58.71;102454.02;1696388;83;21091;-50
2022/11/09 00:40:18;;;;;;;23.12;20.62;;;;;;;12.48;58.90;102450.13;1694474;83;21062;-50
2022/11/09 00:42:45;;;;;;;24.40;20.20;;;;;;;12.51;58.86;102452.72;1693504;83;21109;-50
2022/11/09 00:45:14;;;;;;;23.42;19.37;;;;;;;12.52;58.88;102446.64;1701493;83;21109;-50
2022/11/09 00:47:41;;;;;;;23.65;19.20;;;;;;;12.52;58.86;102442.72;1684913;83;21548;-51
2022/11/09 00:50:09;;;;;;;22.27;19.32;;;;;;;12.53;58.94;102443.14;1704519;83;21100;-50
2022/11/09 00:52:37;;;;;;;24.60;19.50;;;;;;;12.53;59.04;102441.83;1740987;80;21014;-51
2022/11/09 00:55:05;;;;;;;23.80;18.67;;;;;;;12.53;59.04;102437.91;1753759;80;21069;-50
2022/11/09 00:57:31;;;;;;;24.98;19.32;;;;;;;12.50;59.23;102441.86;1750048;80;21076;-50
2022/11/09 00:59:58;;;;;;;29.67;19.90;;;;;;;12.51;59.43;102444.88;1766290;80;21093;-51
2022/11/09 01:02:25;;;;;;;25.60;19.17;;;;;;;12.53;59.50;102443.14;1762863;80;21024;-52
2022/11/09 01:04:52;;;;;;;23.55;19.10;;;;;;;12.55;59.55;102443.16;1756855;80;21059;-52
2022/11/09 01:07:19;;;;;;;23.07;19.02;;;;;;;12.57;59.65;102439.64;1765401;80;21034;-52
2022/11/09 01:09:46;;;;;;;24.72;19.42;;;;;;;12.60;59.70;102441.38;1734062;81;21526;-52
2022/11/09 01:12:13;;;;;;;27.15;20.05;;;;;;;12.61;59.66;102441.37;1754869;80;20986;-52
2022/11/09 01:14:40;;;;;;;26.45;20.05;;;;;;;12.61;59.87;102455.73;1760242;80;21499;-52
2022/11/09 01:17:08;;;;;;;27.15;20.10;;;;;;;12.62;60.00;102448.34;1756079;80;21047;-51
2022/11/09 01:19:35;;;;;;;24.23;20.00;;;;;;;12.64;60.10;102454.43;1756778;80;21125;-51
2022/11/09 01:22:02;;;;;;;23.15;19.82;;;;;;;12.65;60.17;102454.84;1769142;80;21070;-52
2022/11/09 01:24:29;;;;;;;23.95;19.48;;;;;;;12.68;60.24;102457.89;1766626;80;21016;-52
2022/11/09 01:26:56;;;;;;;22.73;20.12;;;;;;;12.68;60.26;102456.16;1775890;80;21533;-52
2022/11/09 01:29:22;;;;;;;23.67;19.27;;;;;;;12.69;60.25;102456.60;1756802;80;21073;-52
2022/11/09 01:31:49;;;;;;;26.65;20.85;;;;;;;12.68;60.22;102458.77;1746396;81;21037;-52
2022/11/09 01:34:16;;;;;;;24.45;20.62;;;;;;;12.68;60.20;102460.08;1750958;80;21568;-51
2022/11/09 01:36:43;;;;;;;26.07;20.37;;;;;;;12.68;60.34;102456.16;1754466;80;21047;-52
2022/11/09 01:39:09;;;;;;;24.25;20.25;;;;;;;12.69;60.34;102457.03;1740863;80;21011;-52
2022/11/09 01:41:39;;;;;;;26.90;20.60;;;;;;;12.69;60.17;102460.52;1749875;80;21604;-52
2022/11/09 01:44:14;;;;;;;24.75;20.02;;;;;;;12.68;60.07;102461.38;1758721;80;21058;-52
2022/11/09 01:46:58;;;;;;;23.95;20.72;;;;;;;12.67;60.03;102462.27;1769301;80;21114;-52
2022/11/09 01:49:51;;;;;;;24.32;19.65;;;;;;;12.66;60.00;102470.96;1752864;80;21031;-53
2022/11/09 01:52:24;;;;;;;;;;;;;;;12.64;60.02;102467.48;1762296;80;21097;-53
2022/11/09 01:54:59;;;;;;;23.38;19.45;;;;;;;12.60;60.10;102473.59;1751733;81;20089;-52
2022/11/09 01:57:30;;;;;;;25.50;19.60;;;;;;;12.58;60.27;102475.34;1747660;81;21053;-52
2022/11/09 02:00:08;;;;;;;21.40;17.00;;;;;;;12.58;60.42;102471.42;1724145;82;21098;-52
2022/11/09 02:02:47;;;;;;;20.85;16.87;;;;;;;12.62;60.43;102472.28;1687254;83;21543;-52
2022/11/09 02:05:15;;;;;;;;;;;;;;;12.63;60.33;102476.18;1697346;83;21571;-51
2022/11/09 02:07:42;;;;;;;20.10;14.65;;;;;;;12.64;60.47;102480.55;1675182;84;20456;-52
2022/11/09 02:10:44;;;;;;;20.32;14.58;;;;;;;12.64;60.64;102483.16;1673503;83;21010;-52
2022/11/09 02:13:13;;;;;;;16.02;13.15;;;;;;;12.66;60.74;102480.53;1686510;83;21113;-52
2022/11/09 02:15:40;;;;;;;16.73;13.85;;;;;;;12.66;60.90;102493.16;1680047;83;21053;-52
2022/11/09 02:18:08;;;;;;;15.70;13.10;;;;;;;12.63;61.10;102489.23;1669113;83;21046;-54
2022/11/09 02:20:47;;;;;;;16.60;13.58;;;;;;;12.63;61.26;102495.77;1680576;83;21095;-52
2022/11/09 02:23:14;;;;;;;15.68;13.18;;;;;;;12.62;61.40;102490.13;1656523;84;21569;-52
2022/11/09 02:25:46;;;;;;;14.75;11.48;;;;;;;12.63;61.78;102495.77;1642659;86;21221;-52
2022/11/09 02:28:13;;;;;;;12.98;11.57;;;;;;;12.66;61.83;102491.86;1619329;87;21062;-53
2022/11/09 02:30:44;;;;;;;15.58;12.33;;;;;;;12.70;61.76;102493.58;1639987;87;21078;-52
2022/11/09 02:33:11;;;;;;;16.87;12.63;;;;;;;12.73;61.82;102493.59;1659984;85;21002;-52
2022/11/09 02:35:37;;;;;;;13.68;11.53;;;;;;;12.74;61.83;102495.31;1640564;86;22321;-52
2022/11/09 02:38:10;;;;;;;14.90;11.65;;;;;;;12.74;61.88;102492.70;1672621;84;21574;-52
2022/11/09 02:40:43;;;;;;;16.02;12.20;;;;;;;12.76;61.89;102493.99;1679584;84;21513;-53
2022/11/09 02:43:10;;;;;;;19.82;11.75;;;;;;;12.75;61.86;102491.84;1626676;87;21114;-52
2022/11/09 02:45:38;;;;;;;15.60;12.23;;;;;;;12.76;61.91;102500.52;1622859;87;21081;-52
2022/11/09 02:48:06;;;;;;;15.63;11.97;;;;;;;12.76;61.84;102501.40;1617307;87;21650;-53
2022/11/09 02:50:35;;;;;;;16.77;12.63;;;;;;;12.78;61.86;102502.27;1612763;87;21122;-53
2022/11/09 02:53:03;;;;;;;17.87;12.68;;;;;;;12.79;61.73;102502.71;1631721;87;21080;-52
2022/11/09 02:55:31;;;;;;;13.95;12.37;;;;;;;12.79;61.73;102505.33;1642494;87;20980;-53
2022/11/09 02:57:58;;;;;;;15.28;12.37;;;;;;;12.80;61.69;102510.09;1624612;87;21048;-53
2022/11/09 03:00:25;;;;;;;15.03;11.78;;;;;;;12.81;61.70;102512.72;1618538;88;21062;-52
2022/11/09 03:02:52;;;;;;;13.00;10.48;;;;;;;12.84;61.65;102517.92;1615277;88;21066;-53
2022/11/09 03:05:19;;;;;;;12.07;9.25;;;;;;;12.89;61.52;102522.70;1625999;87;21097;-52
2022/11/09 03:07:46;;;;;;;12.80;9.85;;;;;;;12.94;61.36;102519.62;1621157;87;21564;-52
2022/11/09 03:10:13;;;;;;;13.58;8.85;;;;;;;12.96;61.29;102521.79;1613903;87;21167;-52
2022/11/09 03:12:42;;;;;;;10.70;8.28;;;;;;;12.98;61.13;102521.34;1624134;87;21645;-53
2022/11/09 03:15:12;;;;;;;10.03;7.35;;;;;;;13.01;61.10;102518.73;1622243;88;21106;-52
2022/11/09 03:17:41;;;;;;;8.45;7.42;;;;;;;13.04;60.84;102518.74;1607175;88;21722;-53
2022/11/09 03:20:10;;;;;;;7.87;6.67;;;;;;;13.06;60.68;102513.53;1622563;87;21079;-52
2022/11/09 03:22:37;;;;;;;7.83;6.28;;;;;;;13.08;60.46;102515.23;1642965;86;21091;-52
2022/11/09 03:25:06;;;;;;;6.12;5.42;;;;;;;13.13;60.24;102517.84;1633547;87;21040;-52
2022/11/09 03:27:33;;;;;;;6.95;5.05;;;;;;;13.16;59.84;102515.66;1630890;86;21050;-53
2022/11/09 03:30:00;;;;;;;5.97;5.03;;;;;;;13.15;59.48;102507.41;1633965;87;21207;-53
2022/11/09 03:32:28;;;;;;;6.47;4.85;;;;;;;13.13;59.20;102511.77;1632597;87;21050;-52
2022/11/09 03:34:55;;;;;;;6.42;5.00;;;;;;;13.11;59.12;102505.68;1628277;86;21636;-52
2022/11/09 03:37:22;;;;;;;6.60;4.78;;;;;;;13.09;59.09;102505.66;1630000;86;21142;-52
2022/11/09 03:39:49;;;;;;;8.38;5.15;;;;;;;13.08;58.99;102507.40;1688832;80;21066;-52
2022/11/09 03:42:16;;;;;;;6.40;5.80;;;;;;;13.08;58.90;102504.78;1743277;80;21108;-50
2022/11/09 03:44:44;;;;;;;6.50;5.37;;;;;;;13.08;58.84;102500.45;1754080;80;21503;-52
2022/11/09 03:47:11;;;;;;;7.03;4.83;;;;;;;13.08;58.81;102503.06;1747285;81;21030;-52
2022/11/09 03:49:38;;;;;;;5.90;5.30;;;;;;;13.08;58.77;102502.17;1754867;80;21526;-52
2022/11/09 03:52:05;;;;;;;6.12;5.28;;;;;;;13.08;58.75;102490.00;1758330;80;21051;-52
2022/11/09 03:54:31;;;;;;;7.42;5.40;;;;;;;13.08;58.79;102497.84;1751812;80;21077;-52
2022/11/09 03:56:58;;;;;;;5.40;4.90;;;;;;;13.10;58.66;102496.09;1767622;80;21564;-52
2022/11/09 03:59:25;;;;;;;5.97;4.95;;;;;;;13.14;58.43;102484.73;1756372;80;21060;-52
2022/11/09 04:01:52;;;;;;;5.83;4.87;;;;;;;13.17;58.15;102486.05;1764836;80;21502;-52
2022/11/09 04:04:18;;;;;;;7.97;5.20;;;;;;;13.20;57.95;102487.32;1746068;81;21137;-53
2022/11/09 04:06:46;;;;;;;5.97;5.37;;;;;;;13.20;57.77;102495.16;1757386;80;21026;-53
2022/11/09 04:09:13;;;;;;;6.50;5.85;;;;;;;13.21;57.65;102492.53;1778780;80;21041;-52
2022/11/09 04:11:41;;;;;;;6.62;5.83;;;;;;;13.19;57.54;102490.83;1760749;80;21577;-52
2022/11/09 04:14:08;;;;;;;7.10;6.40;;;;;;;13.15;57.59;102497.80;1760946;80;21003;-52
2022/11/09 04:16:34;;;;;;;8.00;5.95;;;;;;;13.11;57.62;102492.61;1743158;80;21042;-52
2022/11/09 04:19:01;;;;;;;7.37;5.45;;;;;;;13.11;57.57;102495.22;1755307;80;21062;-51
2022/11/09 04:21:28;;;;;;;8.43;6.85;;;;;;;13.12;57.46;102498.25;1755786;81;21121;-52
2022/11/09 04:23:54;;;;;;;6.45;5.85;;;;;;;13.12;57.35;102490.41;1761245;80;21023;-52
2022/11/09 04:26:21;;;;;;;8.30;5.58;;;;;;;13.11;57.35;102488.69;1746031;80;21069;-52
2022/11/09 04:28:49;;;;;;;6.65;5.97;;;;;;;13.12;57.18;102491.72;1755548;80;21070;-52
2022/11/09 04:31:16;;;;;;;7.75;6.10;;;;;;;13.12;56.80;102495.64;1754865;80;21482;-52
2022/11/09 04:33:45;;;;;;;7.45;6.10;;;;;;;13.13;56.48;102499.55;1765103;80;21506;-52
2022/11/09 04:36:12;;;;;;;7.20;6.35;;;;;;;13.12;56.29;102498.25;1743482;80;21083;-52
2022/11/09 04:38:38;;;;;;;7.75;6.55;;;;;;;13.11;56.37;102496.07;1772141;80;21507;-52
2022/11/09 04:41:07;;;;;;;7.22;6.53;;;;;;;13.08;56.42;102500.86;1761823;80;21038;-52
2022/11/09 04:43:34;;;;;;;7.10;6.33;;;;;;;13.08;56.41;102495.22;1759753;80;21063;-53
2022/11/09 04:46:01;;;;;;;9.90;6.35;;;;;;;13.06;56.50;102497.85;1754220;81;21039;-53
2022/11/09 04:48:30;;;;;;;7.20;6.10;;;;;;;13.03;56.65;102503.92;1747389;81;21170;-52
2022/11/09 04:51:05;;;;;;;7.50;6.58;;;;;;;13.04;56.58;102500.45;1743465;81;21007;-52
2022/11/09 04:53:33;;;;;;;6.90;6.22;;;;;;;13.02;56.58;102502.16;1689891;82;21014;-52
2022/11/09 04:55:59;;;;;;;7.53;6.72;;;;;;;13.02;56.70;102503.94;1740830;81;21517;-52
2022/11/09 04:58:26;;;;;;;7.35;6.67;;;;;;;13.00;56.77;102494.77;1772160;80;21027;-52
2022/11/09 05:00:53;;;;;;;9.18;6.67;;;;;;;13.02;56.52;102500.86;1762138;80;21085;-52
2022/11/09 05:03:19;;;;;;;8.55;7.28;;;;;;;13.02;56.28;102498.25;1747171;80;21027;-52
2022/11/09 05:05:46;;;;;;;9.25;7.20;;;;;;;13.03;55.79;102497.81;1769167;80;21097;-52
2022/11/09 05:08:13;;;;;;;8.43;7.60;;;;;;;13.02;55.42;102503.47;1759475;80;21013;-52
2022/11/09 05:10:40;;;;;;;9.48;8.53;;;;;;;13.00;55.17;102498.69;1764376;80;21042;-52
2022/11/09 05:13:09;;;;;;;12.07;8.78;;;;;;;12.97;55.15;102503.95;1759202;80;21050;-49
2022/11/09 05:15:36;;;;;;;10.38;8.65;;;;;;;12.93;55.24;102503.53;1742972;80;21466;-52
2022/11/09 05:18:03;;;;;;;11.30;9.93;;;;;;;12.90;55.24;102506.60;1751082;80;21034;-51
2022/11/09 05:20:31;;;;;;;10.58;9.40;;;;;;;12.86;55.17;102505.72;1759136;80;21519;-51
2022/11/09 05:25:43;;;;;;;11.75;9.53;;;;;;;12.81;55.21;102512.72;1751736;81;20998;-51
2022/11/09 05:28:10;;;;;;;11.70;10.48;;;;;;;12.79;55.35;102511.85;1752104;80;21064;-52
2022/11/09 05:30:37;;;;;;;11.33;9.90;;;;;;;12.80;55.55;102508.35;1756099;80;21030;-52
2022/11/09 05:33:04;;;;;;;11.85;10.48;;;;;;;12.85;55.61;102515.75;1746388;80;21085;-52
2022/11/09 05:35:32;;;;;;;12.98;10.05;;;;;;;12.92;55.36;102510.92;1748960;81;21074;-51
2022/11/09 05:37:59;;;;;;;10.60;9.50;;;;;;;12.99;55.17;102521.80;1750432;80;20979;-52
2022/11/09 05:40:25;;;;;;;11.35;8.78;;;;;;;13.03;55.04;102526.13;1750644;81;21076;-51
2022/11/09 05:42:52;;;;;;;9.58;8.55;;;;;;;13.07;55.06;102536.16;1760169;80;21077;-51
2022/11/09 05:45:19;;;;;;;10.72;9.25;;;;;;;13.08;55.41;102543.98;1749673;81;21007;-52
2022/11/09 05:47:46;;;;;;;9.45;8.48;;;;;;;13.08;55.75;102541.38;1758984;80;21602;-52
2022/11/09 05:50:14;;;;;;;9.05;8.15;;;;;;;13.04;56.29;102547.48;1758276;80;21034;-51
2022/11/09 05:52:41;;;;;;;10.00;9.00;;;;;;;13.00;56.94;102554.03;1752458;81;21051;-51
2022/11/09 05:55:08;;;;;;;8.85;7.92;;;;;;;12.98;57.19;102547.48;1758842;81;21050;-51
2022/11/09 05:57:35;;;;;;;7.67;6.85;;;;;;;13.01;57.53;102557.94;1755675;80;21033;-51
2022/11/09 06:00:03;;;;;;;10.60;7.97;;;;;;;13.00;57.87;102552.27;1750120;80;21066;-51
2022/11/09 06:02:32;;;;;;;7.75;6.95;;;;;;;13.02;58.19;102564.88;1760265;80;22317;-53
2022/11/09 06:04:59;;;;;;;7.83;7.03;;;;;;;13.03;58.45;102561.84;1759314;80;21003;-52
2022/11/09 06:07:26;;;;;;;8.45;7.00;;;;;;;13.06;58.63;102567.11;1761030;80;21022;-51
2022/11/09 06:09:54;;;;;;;9.88;7.75;;;;;;;13.09;58.75;102567.08;1767143;80;21034;-51
2022/11/09 06:12:20;;;;;;;8.93;7.28;;;;;;;13.13;58.77;102575.80;1749405;81;21042;-51
2022/11/09 06:14:48;;;;;;;8.55;7.28;;;;;;;13.15;58.94;102575.36;1747424;80;20994;-52
2022/11/09 06:17:14;;;;;;;9.90;7.87;;;;;;;13.17;59.10;102570.53;1754154;80;21039;-51
2022/11/09 06:19:41;;;;;;;8.75;7.58;;;;;;;13.22;59.26;102574.44;1759221;80;21068;-51
2022/11/09 06:22:07;;;;;;;9.00;8.05;;;;;;;13.27;59.34;102572.70;1754161;80;21041;-51
2022/11/09 06:24:34;;;;;;;8.10;7.30;;;;;;;13.31;59.46;102575.73;1758183;80;21479;-51
2022/11/09 06:27:01;;;;;;;10.18;7.33;;;;;;;13.35;59.42;102576.14;1750071;80;21090;-51
2022/11/09 06:29:27;;;;;;;8.95;7.50;;;;;;;13.35;59.46;102574.84;1750188;80;21065;-51
2022/11/09 06:31:54;;;;;;;8.70;6.97;;;;;;;13.36;59.61;102580.48;1756012;81;20994;-52
2022/11/09 06:34:21;;;;;;;10.38;7.40;;;;;;;13.39;59.68;102584.41;1760084;80;21043;-52
2022/11/09 06:36:48;;;;;;;8.70;6.72;;;;;;;13.44;59.66;102576.08;1771490;80;21000;-52
2022/11/09 06:39:14;;;;;;;7.65;6.95;;;;;;;13.50;59.55;102582.16;1756039;80;21540;-51
2022/11/09 06:41:41;;;;;;;7.65;6.72;;;;;;;13.52;59.42;102580.41;1768971;80;21065;-52
2022/11/09 06:44:08;;;;;;;8.45;7.03;;;;;;;13.53;59.28;102583.90;1762778;80;21089;-52
2022/11/09 06:46:35;;;;;;;7.65;6.53;;;;;;;13.54;59.37;102585.66;1759347;80;21041;-51
2022/11/09 06:49:02;;;;;;;8.00;6.17;;;;;;;13.57;59.20;102585.63;1752666;80;21562;-51
2022/11/09 06:51:29;;;;;;;8.45;6.55;;;;;;;13.60;58.68;102593.47;1763159;80;21039;-51
2022/11/09 06:53:56;;;;;;;8.98;7.08;;;;;;;13.61;58.66;102588.65;1751102;80;21537;-51
2022/11/09 06:56:22;;;;;;;9.08;6.72;;;;;;;13.65;58.38;102591.68;1765979;80;21101;-51
2022/11/09 06:58:49;;;;;;;9.48;7.45;;;;;;;13.62;58.05;102593.87;1750328;80;21055;-51
2022/11/09 07:01:18;;;;;;;8.28;7.03;;;;;;;13.59;58.14;102591.71;1762342;80;21043;-51
2022/11/09 07:03:44;;;;;;;8.63;6.65;;;;;;;13.61;58.10;102589.96;1754952;80;21089;-51
2022/11/09 07:06:11;;;;;;;8.25;7.17;;;;;;;13.63;58.14;102588.20;1762711;80;21127;-51
2022/11/09 07:08:38;;;;;;;7.70;6.62;;;;;;;13.68;58.09;102591.67;1759953;80;21050;-52
2022/11/09 07:11:11;;;;;;;8.18;7.33;;;;;;;13.72;57.97;102596.02;1758015;80;21049;-51
2022/11/09 07:13:38;;;;;;;7.47;6.78;;;;;;;13.76;57.80;102598.61;1765616;80;20982;-51
2022/11/09 07:16:07;;;;;;;7.40;6.60;;;;;;;13.82;57.60;102587.23;1767706;80;21021;-53
2022/11/09 07:18:35;;;;;;;8.10;7.30;;;;;;;13.84;57.21;102593.32;1751579;80;21450;-51
2022/11/09 07:21:05;;;;;;;8.55;7.05;;;;;;;13.85;57.17;102590.69;1768458;80;21479;-51
2022/11/09 07:23:33;;;;;;;9.98;8.00;;;;;;;13.88;56.86;102592.42;1693124;83;21037;-51
2022/11/09 07:25:59;;;;;;;8.98;8.08;;;;;;;13.85;56.80;102592.42;1641182;85;21641;-51
2022/11/09 07:28:26;;;;;;;9.38;8.48;;;;;;;13.82;56.88;102589.84;1687251;83;21049;-51
2022/11/09 07:30:53;;;;;;;11.00;9.00;;;;;;;13.84;56.99;102594.63;1649371;85;21073;-51
2022/11/09 07:33:21;;;;;;;10.63;9.05;;;;;;;13.87;56.92;102597.21;1674335;84;21082;-50
2022/11/09 07:35:48;;;;;;;11.35;7.90;;;;;;;13.91;56.97;102598.09;1695729;83;21058;-52
2022/11/09 07:38:15;;;;;;;10.20;8.50;;;;;;;13.94;56.81;102602.85;1686336;83;21042;-51
2022/11/09 07:40:43;;;;;;;8.50;7.60;;;;;;;13.98;56.73;102595.41;1690571;84;21086;-51
2022/11/09 07:43:10;;;;;;;9.80;7.97;;;;;;;14.04;56.74;102595.37;1692775;83;20991;-51
2022/11/09 07:45:39;;;;;;;10.00;8.13;;;;;;;14.09;56.72;102589.67;1673937;83;21565;-51
2022/11/09 07:48:08;;;;;;;10.50;8.18;;;;;;;14.17;56.45;102594.84;1670732;83;21069;-51
2022/11/09 07:50:36;;;;;;;8.85;7.83;;;;;;;14.21;56.35;102595.25;1679248;84;21521;-51
2022/11/09 07:53:06;;;;;;;9.45;8.55;;;;;;;14.26;56.16;102600.86;1679728;83;21602;-51
2022/11/09 07:55:33;;;;;;;9.15;8.13;;;;;;;14.27;55.99;102602.62;1672945;83;21033;-50
2022/11/09 07:58:06;;;;;;;11.70;8.93;;;;;;;14.29;55.99;102600.02;1686615;83;21046;-51
2022/11/09 08:00:34;;;;;;;9.25;8.35;;;;;;;14.29;56.01;102604.82;1620508;88;21138;-51
2022/11/09 08:03:01;;;;;;;9.08;7.87;;;;;;;14.29;55.91;102606.13;1616854;88;21034;-51
2022/11/09 08:05:28;;;;;;;9.00;7.50;;;;;;;14.26;55.94;102606.10;1589024;90;21123;-51
2022/11/09 08:07:58;;;;;;;11.40;8.63;;;;;;;14.27;56.05;102606.98;1596942;88;21065;-51
2022/11/09 08:10:26;;;;;;;8.65;7.72;;;;;;;14.29;55.99;102613.98;1589246;90;21035;-51
2022/11/09 08:12:59;;;;;;;9.55;7.22;;;;;;;14.33;56.01;102606.53;1570321;91;21076;-51
2022/11/09 08:15:27;;;;;;;8.00;6.92;;;;;;;14.38;55.92;102613.05;1616189;88;21082;-50
2022/11/09 08:17:56;;;;;;;8.40;6.17;;;;;;;14.39;56.19;102611.72;1589046;90;21099;-51
2022/11/09 08:20:22;;;;;;;10.72;7.58;;;;;;;14.41;56.25;102609.95;1577874;90;21117;-51
2022/11/09 08:22:49;;;;;;;8.95;7.53;;;;;;;14.41;56.42;102608.64;1581244;90;21130;-51
2022/11/09 08:25:17;;;;;;;8.30;7.05;;;;;;;14.43;56.43;102604.27;1585657;90;21070;-51
2022/11/09 08:27:45;;;;;;;8.55;7.67;;;;;;;14.46;56.48;102606.88;1567819;90;21122;-51
2022/11/09 08:30:15;;;;;;;9.33;7.45;;;;;;;14.52;56.71;102610.75;1584406;89;21117;-51
2022/11/09 08:32:43;;;;;;;9.95;7.28;;;;;;;14.60;56.58;102607.61;1586093;90;21061;-51
2022/11/09 08:35:15;;;;;;;8.40;6.42;;;;;;;14.67;56.22;102604.03;1585918;90;21126;-51
2022/11/09 08:37:40;;;;;;;8.13;7.22;;;;;;;14.73;56.27;102602.25;1583358;90;21114;-51
2022/11/09 08:40:08;;;;;;;8.68;7.70;;;;;;;14.80;56.25;102603.91;1585819;90;21089;-51
2022/11/09 08:42:36;;;;;;;7.60;6.85;;;;;;;14.84;56.11;102603.03;1585337;90;21077;-51
2022/11/09 08:45:04;;;;;;;10.82;7.17;;;;;;;14.93;56.01;102605.54;1585610;90;21117;-51
2022/11/09 08:47:30;;;;;;;7.20;6.50;;;;;;;15.00;55.84;102597.58;1585742;90;21065;-51
2022/11/09 08:49:57;;;;;;;7.78;6.45;;;;;;;15.10;55.62;102598.38;1585583;90;21249;-51
2022/11/09 08:52:23;;;;;;;7.80;7.00;;;;;;;15.17;55.48;102594.78;1585796;90;21175;-50
2022/11/09 08:54:50;;;;;;;8.98;7.05;;;;;;;15.23;55.32;102592.08;1585015;90;21090;-51
2022/11/09 08:57:19;;;;;;;7.58;6.78;;;;;;;15.30;55.13;102593.76;1637701;85;21050;-51
2022/11/09 08:59:46;;;;;;;7.87;7.08;;;;;;;15.38;54.81;102591.91;1663021;86;21082;-51
2022/11/09 09:02:14;;;;;;;8.23;7.35;;;;;;;15.42;54.53;102589.66;1663287;86;21026;-51
2022/11/09 09:04:40;;;;;;;8.13;7.33;;;;;;;15.48;54.25;102590.93;1679221;85;21131;-51
2022/11/09 09:07:07;;;;;;;10.43;7.85;;;;;;;15.52;53.84;102591.31;1683831;85;21051;-50
2022/11/09 09:09:33;;;;;;;8.65;7.05;;;;;;;15.54;53.74;102585.60;1681014;85;21046;-52
2022/11/09 09:12:00;;;;;;;7.90;6.42;;;;;;;15.61;53.84;102587.70;1679505;85;21538;-51
2022/11/09 09:14:27;;;;;;;8.93;7.55;;;;;;;15.68;53.84;102578.87;1684982;85;21061;-51
2022/11/09 09:16:54;;;;;;;8.50;7.22;;;;;;;15.75;53.74;102586.63;1688329;85;21037;-51
2022/11/09 09:19:21;;;;;;;10.08;7.58;;;;;;;15.80;53.62;102586.13;1684276;85;21034;-50
2022/11/09 09:21:48;;;;;;;8.55;7.33;;;;;;;15.85;53.50;102581.67;1680599;85;21054;-51
2022/11/09 09:24:15;;;;;;;8.18;7.33;;;;;;;15.92;53.39;102585.08;1683186;85;21535;-51
2022/11/09 09:26:44;;;;;;;10.23;7.92;;;;;;;15.99;53.21;102579.70;1676678;85;21015;-51
2022/11/09 09:29:12;;;;;;;9.10;7.67;;;;;;;16.08;53.09;102582.20;1679687;84;21035;-51
2022/11/09 09:31:40;;;;;;;8.45;7.50;;;;;;;16.13;52.92;102580.38;1677146;85;20999;-51
2022/11/09 09:34:07;;;;;;;9.10;7.97;;;;;;;16.19;52.75;102579.41;1685353;85;21061;-51
2022/11/09 09:36:36;;;;;;;9.73;8.05;;;;;;;16.24;52.52;102586.31;1681289;85;21054;-50
2022/11/09 09:39:03;;;;;;;9.88;8.03;;;;;;;16.27;52.38;102588.03;1679401;85;21063;-51
2022/11/09 09:41:49;;;;;;;9.45;8.18;;;;;;;16.27;52.29;102582.34;1685094;85;20999;-51
2022/11/09 09:44:30;;;;;;;8.40;7.58;;;;;;;16.30;52.32;102590.59;1667874;85;21114;-50
2022/11/09 09:47:21;;;;;;;8.63;7.70;;;;;;;16.31;52.37;102592.34;1680317;85;21065;-51
2022/11/09 09:50:01;;;;;;;10.00;8.18;;;;;;;16.34;52.32;102588.80;1679970;85;21123;-50
2022/11/09 09:52:49;;;;;;;11.27;7.47;;;;;;;16.36;52.42;102585.27;1644204;87;21104;-52
2022/11/09 09:55:29;;;;;;;8.48;7.58;;;;;;;16.40;52.34;102586.07;1583645;90;21428;-51
2022/11/09 09:58:02;;;;;;;9.63;7.63;;;;;;;16.45;52.13;102586.84;1685242;84;21090;-51
2022/11/09 10:00:28;;;;;;;9.45;7.42;;;;;;;16.50;52.00;102581.11;1605828;88;21164;-52
2022/11/09 10:02:55;;;;;;;10.38;8.40;;;;;;;16.54;51.58;102573.59;1592269;89;21092;-51
2022/11/09 10:05:28;;;;;;;10.40;7.92;;;;;;;16.60;51.59;102570.41;1618800;88;21634;-50
2022/11/09 10:08:10;;;;;;;10.20;8.03;;;;;;;16.64;51.58;102564.64;1617092;88;21090;-51
2022/11/09 10:11:09;;;;;;;8.68;7.15;;;;;;;16.70;51.34;102568.47;1568732;89;21097;-51
2022/11/09 10:14:02;;;;;;;10.03;7.67;;;;;;;16.75;51.29;102560.06;1585377;89;21615;-51
2022/11/09 10:17:02;;;;;;;11.18;7.70;;;;;;;16.83;51.09;102554.22;1546149;91;21186;-51
2022/11/09 10:19:47;;;;;;;6.97;6.28;;;;;;;16.89;50.78;102555.41;1545381;91;21060;-50
2022/11/09 10:22:27;;;;;;;9.05;6.95;;;;;;;16.95;50.65;102546.09;1508576;92;21137;-51
2022/11/09 10:25:22;;;;;;;9.33;7.20;;;;;;;16.99;50.41;102541.18;1527866;91;21170;-51
2022/11/09 10:27:59;;;;;;;7.60;6.65;;;;;;;17.03;50.21;102548.11;1534972;92;21087;-50
2022/11/09 10:30:28;;;;;;;8.28;5.87;;;;;;;17.08;50.09;102544.95;1559318;90;21066;-51
2022/11/09 10:33:00;;;;;;;7.12;4.90;;;;;;;17.12;49.50;102543.12;1565271;91;21128;-51
2022/11/09 10:35:34;;;;;;;;;;;;;;;17.14;48.75;102538.25;1567781;91;21118;-48
2022/11/09 10:38:01;;;;;;;7.83;5.55;;;;;;;17.18;48.16;102541.67;1561867;91;20173;-51
2022/11/09 10:40:38;;;;;;;6.85;4.85;;;;;;;17.18;47.88;102542.55;1543872;90;21139;-51
2022/11/09 10:43:24;;;;;;;5.35;4.78;;;;;;;17.20;47.60;102538.13;1555562;90;21103;-50
2022/11/09 10:46:10;;;;;;;5.95;4.90;;;;;;;17.23;47.62;102545.93;1529513;92;21250;-50
2022/11/09 10:48:55;;;;;;;6.70;4.83;;;;;;;17.23;47.43;102545.93;1568640;89;21094;-52
2022/11/09 10:51:45;;;;;;;7.47;4.92;;;;;;;17.24;47.19;102541.10;1550606;90;21098;-51
2022/11/09 10:54:34;;;;;;;5.83;4.87;;;;;;;17.22;47.38;102536.77;1580320;88;21107;-50
2022/11/09 10:57:23;;;;;;;4.90;4.25;;;;;;;17.21;47.44;102538.52;1580599;89;21083;-51
2022/11/09 11:00:16;;;;;;;6.10;4.78;;;;;;;17.21;46.84;102536.36;1549022;90;21094;-51
2022/11/09 11:03:14;;;;;;;6.40;5.53;;;;;;;17.18;46.91;102533.34;1572392;89;21229;-51
2022/11/09 11:06:03;;;;;;;5.28;4.30;;;;;;;17.15;46.61;102529.44;1577897;89;21068;-50
2022/11/09 11:09:09;;;;;;;6.17;5.22;;;;;;;17.14;46.60;102530.80;1538147;90;21071;-51
2022/11/09 11:12:19;;;;;;;6.00;4.97;;;;;;;17.13;46.78;102525.98;1545849;91;21188;-51
2022/11/09 11:15:17;;;;;;;9.35;4.87;;;;;;;17.14;46.59;102525.09;1565919;90;21090;-51
2022/11/09 11:18:06;;;;;;;9.05;4.55;;;;;;;17.14;46.69;102527.73;1551716;91;21096;-51
2022/11/09 11:21:08;;;;;;;6.00;4.80;;;;;;;17.14;46.62;102526.41;1555778;90;21147;-51
2022/11/09 11:24:15;;;;;;;5.67;5.00;;;;;;;17.18;46.32;102524.13;1557794;90;21141;-50
2022/11/09 11:27:36;;;;;;;7.42;4.75;;;;;;;17.20;46.25;102517.08;1558081;90;21615;-50
2022/11/09 11:33:14;;;;;;;4.75;4.35;;;;;;;17.23;46.49;102516.99;1477166;95;21103;-52
2022/11/09 11:36:22;;;;;;;7.28;5.05;;;;;;;17.23;46.33;102518.31;1481143;95;21164;-51
2022/11/09 11:39:16;;;;;;;6.10;4.70;;;;;;;17.23;46.20;102516.99;1479296;95;21203;-49
2022/11/09 11:42:09;;;;;;;5.22;4.40;;;;;;;17.21;45.96;102516.16;1474164;95;21119;-50